createdAt,value
2022-09-11T00:00:20.619Z,97123.00
2022-09-11T00:05:21.359Z,97126.00
2022-09-11T00:10:23.812Z,97132.00
2022-09-11T00:15:24.659Z,97121.00
2022-09-11T00:20:25.486Z,97135.00
2022-09-11T00:25:26.301Z,97131.00
2022-09-11T00:30:28.374Z,97143.00
2022-09-11T00:35:30.115Z,97131.00
2022-09-11T00:40:31.421Z,97149.00
2022-09-11T00:45:32.426Z,97151.00
2022-09-11T00:50:33.901Z,97159.00
2022-09-11T00:55:37.400Z,97162.00
2022-09-11T01:00:42.267Z,97182.00
2022-09-11T01:05:43.993Z,97168.00
2022-09-11T01:11:28.826Z,97159.00
2022-09-11T01:18:09.398Z,97162.00
2022-09-11T01:23:45.977Z,97164.00
2022-09-11T01:29:19.609Z,97155.00
2022-09-11T01:34:27.005Z,97155.00
2022-09-11T01:39:37.873Z,97155.00
2022-09-11T01:44:44.451Z,97168.00
2022-09-11T01:53:21.514Z,97160.00
2022-09-11T01:58:27.369Z,97164.00
2022-09-11T02:03:45.525Z,97170.00
2022-09-11T02:08:54.891Z,97174.00
2022-09-11T02:14:23.784Z,97180.00
2022-09-11T02:19:28.614Z,97169.00
2022-09-11T02:24:29.503Z,97175.00
2022-09-11T02:29:30.902Z,97187.00
2022-09-11T02:34:35.562Z,97190.00
2022-09-11T02:46:47.922Z,97195.00
2022-09-11T02:52:02.930Z,97198.00
2022-09-11T02:57:54.994Z,97198.00
2022-09-11T03:02:55.972Z,97208.00
2022-09-11T03:07:57.406Z,97216.00
2022-09-11T03:12:58.990Z,97212.00
2022-09-11T03:18:00.928Z,97211.00
2022-09-11T03:23:04.578Z,97204.00
2022-09-11T03:28:06.329Z,97218.00
2022-09-11T03:33:08.234Z,97212.00
2022-09-11T03:38:09.686Z,97219.00
2022-09-11T03:43:11.836Z,97224.00
2022-09-11T03:48:12.655Z,97216.00
2022-09-11T03:53:16.685Z,97215.00
2022-09-11T03:58:18.890Z,97216.00
2022-09-11T04:03:20.904Z,97234.00
2022-09-11T04:08:22.221Z,97236.00
2022-09-11T04:13:32.124Z,97230.00
2022-09-11T04:18:36.997Z,97225.00
2022-09-11T04:23:38.388Z,97238.00
2022-09-11T04:28:39.249Z,97239.00
2022-09-11T04:33:40.307Z,97246.00
2022-09-11T04:38:41.798Z,97242.00
2022-09-11T04:43:45.202Z,97244.00
2022-09-11T04:48:52.905Z,97255.00
2022-09-11T04:53:58.469Z,97265.00
2022-09-11T04:59:06.521Z,97271.00
2022-09-11T05:04:11.980Z,97280.00
2022-09-11T05:09:15.398Z,97288.00
2022-09-11T05:14:17.572Z,97288.00
2022-09-11T05:19:21.287Z,97291.00
2022-09-11T05:24:22.208Z,97297.00
2022-09-11T05:29:32.208Z,97300.00
2022-09-11T05:34:41.255Z,97297.00
2022-09-11T05:39:43.989Z,97303.00
2022-09-11T05:44:46.548Z,97312.00
2022-09-11T05:49:49.173Z,97322.00
2022-09-11T05:54:50.879Z,97328.00
2022-09-11T05:59:52.135Z,97332.00
2022-09-11T06:04:53.116Z,97340.00
2022-09-11T06:10:00.914Z,97335.00
2022-09-11T06:15:05.469Z,97341.00
2022-09-11T06:20:11.645Z,97354.00
2022-09-11T06:25:13.761Z,97356.00
2022-09-11T06:30:15.071Z,97360.00
2022-09-11T06:35:18.494Z,97369.00
2022-09-11T06:40:19.815Z,97367.00
2022-09-11T06:45:21.836Z,97376.00
2022-09-11T06:50:22.948Z,97380.00
2022-09-11T06:55:36.008Z,97382.00
2022-09-11T07:00:40.982Z,97384.00
2022-09-11T07:05:47.387Z,97388.00
2022-09-11T07:10:49.076Z,97392.00
2022-09-11T07:15:59.678Z,97399.00
2022-09-11T07:21:04.568Z,97396.00
2022-09-11T07:26:09.132Z,97388.00
2022-09-11T07:31:19.963Z,97402.00
2022-09-11T07:36:25.465Z,97406.00
2022-09-11T07:41:27.831Z,97408.00
2022-09-11T07:46:30.388Z,97411.00
2022-09-11T07:51:37.232Z,97409.00
2022-09-11T07:56:40.718Z,97417.00
2022-09-11T08:01:42.925Z,97429.00
2022-09-11T08:06:44.250Z,97430.00
2022-09-11T08:11:52.676Z,97424.00
2022-09-11T08:16:54.237Z,97433.00
2022-09-11T08:21:55.305Z,97434.00
2022-09-11T08:26:56.479Z,97428.00
2022-09-11T08:32:02.189Z,97431.00
2022-09-11T08:37:04.531Z,97425.00
2022-09-11T08:42:15.704Z,97431.00
2022-09-11T08:47:38.255Z,97444.00
2022-09-11T08:52:40.687Z,97441.00
2022-09-11T08:57:55.436Z,97445.00
2022-09-11T09:04:09.931Z,97454.00
2022-09-11T09:12:23.079Z,97451.00
2022-09-11T09:17:32.336Z,97451.00
2022-09-11T09:22:55.285Z,97460.00
2022-09-11T09:28:34.036Z,97455.00
2022-09-11T09:33:47.172Z,97465.00
2022-09-11T09:38:48.951Z,97463.00
2022-09-11T09:44:19.734Z,97458.00
2022-09-11T09:49:27.297Z,97469.00
2022-09-11T09:54:33.527Z,97468.00
2022-09-11T10:00:06.606Z,97479.00
2022-09-11T10:05:30.563Z,97474.00
2022-09-11T10:10:37.288Z,97466.00
2022-09-11T10:15:39.273Z,97477.00
2022-09-11T10:20:40.545Z,97477.00
2022-09-11T10:25:47.336Z,97464.00
2022-09-11T10:31:01.621Z,97468.00
2022-09-11T10:36:06.018Z,97479.00
2022-09-11T10:41:20.186Z,97482.00
2022-09-11T10:46:45.310Z,97465.00
2022-09-11T10:54:40.862Z,97464.00
2022-09-11T11:00:12.221Z,97463.00
2022-09-11T11:05:30.582Z,97466.00
2022-09-11T11:10:47.687Z,97467.00
2022-09-11T11:16:13.675Z,97454.00
2022-09-11T11:24:42.211Z,97453.00
2022-09-11T11:30:37.921Z,97454.00
2022-09-11T11:36:07.637Z,97448.00
2022-09-11T11:41:34.292Z,97453.00
2022-09-11T11:46:39.451Z,97450.00
2022-09-11T11:51:53.343Z,97454.00
2022-09-11T11:57:21.609Z,97459.00
2022-09-11T12:02:34.965Z,97456.00
2022-09-11T12:07:38.153Z,97464.00
2022-09-11T12:12:53.425Z,97456.00
2022-09-11T12:18:23.335Z,97464.00
2022-09-11T12:24:08.877Z,97451.00
2022-09-11T12:29:57.033Z,97448.00
2022-09-11T12:35:11.613Z,97450.00
2022-09-11T12:40:22.257Z,97436.00
2022-09-11T12:45:36.236Z,97432.00
2022-09-11T12:50:52.235Z,97430.00
2022-09-11T12:56:00.265Z,97429.00
2022-09-11T13:01:22.434Z,97431.00
2022-09-11T13:06:35.945Z,97428.00
2022-09-11T13:11:51.775Z,97418.00
2022-09-11T13:16:59.533Z,97422.00
2022-09-11T13:22:01.147Z,97407.00
2022-09-11T13:27:27.497Z,97412.00
2022-09-11T13:32:31.641Z,97401.00
2022-09-11T13:37:46.334Z,97399.00
2022-09-11T13:42:48.708Z,97397.00
2022-09-11T13:47:49.478Z,97402.00
2022-09-11T13:52:52.962Z,97389.00
2022-09-11T13:58:00.269Z,97393.00
2022-09-11T14:03:01.536Z,97386.00
2022-09-11T14:08:24.620Z,97386.00
2022-09-11T14:14:11.185Z,97377.00
2022-09-11T14:19:17.494Z,97372.00
2022-09-11T14:24:36.594Z,97359.00
2022-09-11T14:29:37.508Z,97358.00
2022-09-11T14:34:38.571Z,97358.00
2022-09-11T14:39:47.048Z,97352.00
2022-09-11T14:44:48.547Z,97356.00
2022-09-11T14:49:54.875Z,97352.00
2022-09-11T14:54:59.304Z,97359.00
2022-09-11T15:00:00.373Z,97350.00
2022-09-11T15:05:02.180Z,97355.00
2022-09-11T15:10:03.368Z,97352.00
2022-09-11T15:15:05.167Z,97357.00
2022-09-11T15:20:08.671Z,97352.00
2022-09-11T15:25:10.443Z,97344.00
2022-09-11T15:30:11.752Z,97350.00
2022-09-11T15:35:12.648Z,97344.00
2022-09-11T15:40:15.324Z,97333.00
2022-09-11T15:45:16.337Z,97323.00
2022-09-11T15:50:23.623Z,97324.00
2022-09-11T15:55:26.522Z,97309.00
2022-09-11T16:00:28.711Z,97311.00
2022-09-11T16:05:38.156Z,97315.00
2022-09-11T16:10:39.091Z,97316.00
2022-09-11T16:15:40.338Z,97328.00
2022-09-11T16:20:42.750Z,97323.00
2022-09-11T16:25:43.894Z,97329.00
2022-09-11T16:30:48.398Z,97325.00
2022-09-11T16:36:00.308Z,97331.00
2022-09-11T16:41:15.866Z,97330.00
2022-09-11T16:46:23.385Z,97334.00
2022-09-11T16:51:24.933Z,97336.00
2022-09-11T16:56:25.738Z,97327.00
2022-09-11T17:01:28.543Z,97331.00
2022-09-11T17:06:29.564Z,97325.00
2022-09-11T17:11:32.022Z,97332.00
2022-09-11T17:16:35.162Z,97328.00
2022-09-11T17:21:37.179Z,97327.00
2022-09-11T17:26:38.487Z,97330.00
2022-09-11T17:31:40.074Z,97329.00
2022-09-11T17:36:40.870Z,97326.00
2022-09-11T17:41:43.393Z,97316.00
2022-09-11T17:46:44.218Z,97322.00
2022-09-11T17:51:45.055Z,97321.00
2022-09-11T17:56:46.321Z,97329.00
2022-09-11T18:01:47.180Z,97323.00
2022-09-11T18:06:47.902Z,97325.00
2022-09-11T18:11:50.451Z,97319.00
2022-09-11T18:16:51.184Z,97315.00
2022-09-11T18:21:52.823Z,97324.00
2022-09-11T18:26:58.573Z,97330.00
2022-09-11T18:32:02.946Z,97326.00
2022-09-11T18:37:04.291Z,97335.00
2022-09-11T18:42:06.391Z,97331.00
2022-09-11T18:47:07.225Z,97342.00
2022-09-11T18:52:08.391Z,97341.00
2022-09-11T18:57:09.178Z,97347.00
2022-09-11T19:02:10.387Z,97345.00
2022-09-11T19:07:12.662Z,97357.00
2022-09-11T19:12:15.451Z,97357.00
2022-09-11T19:17:16.558Z,97357.00
2022-09-11T19:22:22.285Z,97363.00
2022-09-11T19:27:27.002Z,97360.00
2022-09-11T19:32:27.779Z,97365.00
2022-09-11T19:37:28.578Z,97361.00
2022-09-11T19:42:29.714Z,97364.00
2022-09-11T19:47:30.577Z,97373.00
2022-09-11T19:52:33.179Z,97365.00
2022-09-11T19:57:34.204Z,97368.00
2022-09-11T20:02:35.690Z,97366.00
2022-09-11T20:07:39.264Z,97372.00
2022-09-11T20:12:40.147Z,97365.00
2022-09-11T20:17:43.660Z,97376.00
2022-09-11T20:22:44.391Z,97366.00
2022-09-11T20:27:45.641Z,97355.00
2022-09-11T20:32:46.387Z,97364.00
2022-09-11T20:37:47.999Z,97354.00
2022-09-11T20:42:48.868Z,97344.00
2022-09-11T20:47:49.678Z,97334.00
2022-09-11T20:52:50.447Z,97347.00
2022-09-11T20:57:51.201Z,97350.00
2022-09-11T21:02:51.986Z,97348.00
2022-09-11T21:07:52.879Z,97351.00
2022-09-11T21:12:54.538Z,97347.00
2022-09-11T21:17:55.924Z,97355.00
2022-09-11T21:22:56.688Z,97349.00
2022-09-11T21:27:58.102Z,97346.00
2022-09-11T21:32:58.827Z,97343.00
2022-09-11T21:38:00.213Z,97336.00
2022-09-11T21:43:01.459Z,97335.00
2022-09-11T21:48:04.831Z,97335.00
2022-09-11T21:53:06.791Z,97327.00
2022-09-11T21:58:12.348Z,97329.00
2022-09-11T22:03:15.472Z,97320.00
2022-09-11T22:08:17.612Z,97319.00
2022-09-11T22:13:18.960Z,97315.00
2022-09-11T22:18:19.767Z,97322.00
2022-09-11T22:23:21.088Z,97312.00
2022-09-11T22:28:22.156Z,97309.00
2022-09-11T22:33:23.669Z,97321.00
2022-09-11T22:38:24.462Z,97313.00
2022-09-11T22:43:25.288Z,97309.00
2022-09-11T22:48:26.177Z,97316.00
2022-09-11T22:53:27.911Z,97320.00
2022-09-11T22:58:29.743Z,97318.00
2022-09-11T23:03:30.768Z,97315.00
2022-09-11T23:08:38.909Z,97321.00
2022-09-11T23:13:41.912Z,97309.00
2022-09-11T23:18:43.456Z,97320.00
2022-09-11T23:23:52.634Z,97314.00
2022-09-11T23:28:55.715Z,97305.00
2022-09-11T23:33:59.619Z,97300.00
2022-09-11T23:39:00.775Z,97301.00
2022-09-11T23:44:02.812Z,97298.00
2022-09-11T23:49:03.827Z,97294.00
2022-09-11T23:54:05.002Z,97289.00
2022-09-11T23:59:05.950Z,97293.00
